Rembert, South Carolina
Current Conditions -  °F | °C
As of 12:58 PM on Friday 28 Nov 2014 (Local Time) from KSSC Reporting Station
Clear Clear  
Wind Chill: 45°   Ceiling: Unl
Heat Index: 45°   Visibility: 10mi
Dew Point: 20°   Wind: 3mph
Humidity: 37%   Direction: 290°WNW
Pressure: 30.32"   Gusts: NA
Location:  34.1°N, 80.53°W
Report Text: KSSC 281758Z AUTO 29003KT 10SM CLR 07/M07 A3032 RMK AO2 SLP270 T00731067 10076 21019 57029 $
Loading
Personal Weather Stations






























Interactive Weather Map New forecast layout! Learn more

10-Day Weather Forecast

Advertisements
Track Severe Weather on mobile